Time;durP1;ratioP1;P1;durP2;ratioP2;P2;SDS_P1;SDS_P2;PMS_P1;PMS_P2;Temp;Humidity;BMP_temperature;BMP_pressure;BME280_temperature;BME280_humidity;BME280_pressure;Samples;Min_cycle;Max_cycle;Signal;HPM_P1;HPM_P2
2023/08/11 00:02:22;;;;;;;6.67;4.17;;;16.30;99.90;;;;;;5076778;28;20186;-69
2023/08/11 00:04:49;;;;;;;6.03;4.60;;;16.20;99.90;;;;;;5094043;28;20219;-72
2023/08/11 00:07:15;;;;;;;8.67;4.53;;;16.20;99.90;;;;;;5093863;28;20412;-69
2023/08/11 00:09:41;;;;;;;4.90;4.20;;;16.20;99.90;;;;;;5076181;28;20442;-69
2023/08/11 00:12:06;;;;;;;5.30;4.73;;;16.20;99.90;;;;;;5076892;28;20238;-68
2023/08/11 00:14:32;;;;;;;5.83;4.30;;;16.20;99.90;;;;;;5092408;28;20692;-69
2023/08/11 00:16:58;;;;;;;6.37;4.30;;;16.20;99.90;;;;;;5095175;28;20598;-69
2023/08/11 00:19:24;;;;;;;6.17;4.07;;;16.20;99.90;;;;;;5095605;28;20180;-69
2023/08/11 00:21:49;;;;;;;4.70;4.30;;;16.20;99.90;;;;;;5113933;28;20189;-69
2023/08/11 00:24:15;;;;;;;6.20;4.47;;;16.20;99.90;;;;;;5114313;28;20183;-69
2023/08/11 00:26:40;;;;;;;5.07;4.27;;;16.20;99.90;;;;;;5110595;28;20161;-70
2023/08/11 00:29:06;;;;;;;5.07;4.00;;;16.20;99.90;;;;;;5098124;28;20187;-70
2023/08/11 00:31:31;;;;;;;5.33;4.37;;;16.10;99.90;;;;;;5114092;28;20195;-70
2023/08/11 00:33:57;;;;;;;4.40;4.00;;;16.10;99.90;;;;;;5096029;28;20165;-70
2023/08/11 00:36:23;;;;;;;10.93;4.77;;;16.10;99.90;;;;;;5113676;28;20165;-70
2023/08/11 00:38:49;;;;;;;6.80;4.20;;;16.10;99.90;;;;;;5095754;28;20173;-69
2023/08/11 00:41:16;;;;;;;6.40;3.90;;;16.10;99.90;;;;;;5088363;28;20462;-70
2023/08/11 00:43:42;;;;;;;6.60;4.40;;;16.10;99.90;;;;;;5067339;28;20181;-69
2023/08/11 00:46:10;;;;;;;6.27;4.93;;;16.10;99.90;;;;;;5079519;28;20409;-69
2023/08/11 00:48:40;;;;;;;5.73;4.80;;;16.10;99.90;;;;;;5111367;28;20444;-69
2023/08/11 00:51:06;;;;;;;9.13;4.37;;;16.10;99.90;;;;;;5079499;28;20435;-70
2023/08/11 00:53:33;;;;;;;7.63;4.07;;;16.00;99.90;;;;;;5095445;28;20399;-69
2023/08/11 00:56:01;;;;;;;8.90;5.00;;;16.00;99.90;;;;;;5078023;28;20515;-70
2023/08/11 00:58:28;;;;;;;7.20;4.90;;;15.90;99.90;;;;;;5104118;28;20494;-70
2023/08/11 01:00:53;;;;;;;9.80;6.30;;;15.90;99.90;;;;;;5113475;28;20431;-69
2023/08/11 01:03:19;;;;;;;4.00;3.60;;;15.80;99.90;;;;;;5114009;28;20410;-69
2023/08/11 01:06:10;;;;;;;9.93;5.03;;;15.80;99.90;;;;;;5094994;28;20179;-69
2023/08/11 01:08:55;;;;;;;6.27;4.73;;;15.80;99.90;;;;;;5113130;28;20193;-69
2023/08/11 01:11:30;;;;;;;5.60;4.20;;;15.80;99.90;;;;;;5085825;28;20476;-69
2023/08/11 01:14:09;;;;;;;7.30;4.00;;;15.80;99.90;;;;;;5095395;28;20398;-69
2023/08/11 01:16:36;;;;;;;6.13;3.83;;;15.80;99.90;;;;;;5112944;28;20933;-69
2023/08/11 01:19:05;;;;;;;10.97;5.33;;;15.80;99.90;;;;;;5113113;28;20495;-69
2023/08/11 01:21:34;;;;;;;6.90;4.67;;;15.80;99.90;;;;;;5094879;28;20527;-69
2023/08/11 01:24:00;;;;;;;5.43;4.57;;;15.70;99.90;;;;;;5099750;28;20430;-69
2023/08/11 01:26:26;;;;;;;6.60;4.30;;;15.70;99.90;;;;;;5081285;28;20419;-69
2023/08/11 01:28:53;;;;;;;6.93;5.20;;;15.70;99.90;;;;;;5113052;28;20811;-69
2023/08/11 01:31:19;;;;;;;5.90;4.53;;;15.70;99.90;;;;;;5112909;28;20423;-69
2023/08/11 01:33:45;;;;;;;6.63;4.50;;;15.70;99.90;;;;;;5112989;28;20395;-69
2023/08/11 01:36:10;;;;;;;6.10;5.50;;;15.70;99.90;;;;;;5112777;28;20917;-69
2023/08/11 01:38:36;;;;;;;5.77;4.57;;;15.60;99.90;;;;;;5095162;28;20179;-69
2023/08/11 01:41:02;;;;;;;7.37;5.50;;;15.60;99.90;;;;;;5074238;28;20271;-68
2023/08/11 01:43:29;;;;;;;6.83;5.63;;;15.60;99.90;;;;;;5092429;28;20167;-68
2023/08/11 01:45:56;;;;;;;5.83;4.80;;;15.60;99.90;;;;;;5073907;28;20170;-69
2023/08/11 01:48:23;;;;;;;6.90;4.60;;;15.60;99.90;;;;;;5092249;28;20447;-69
2023/08/11 01:50:49;;;;;;;6.13;4.87;;;15.60;99.90;;;;;;5090540;28;20936;-68
2023/08/11 01:53:14;;;;;;;8.77;5.90;;;15.60;99.90;;;;;;5086146;28;20415;-69
2023/08/11 01:55:41;;;;;;;7.60;5.83;;;15.50;99.90;;;;;;5109562;28;20416;-68
2023/08/11 01:58:07;;;;;;;7.60;6.20;;;15.60;99.90;;;;;;5112651;28;20515;-69
2023/08/11 02:00:33;;;;;;;9.80;6.63;;;15.60;99.90;;;;;;5112565;28;20410;-69
2023/08/11 02:02:58;;;;;;;11.70;6.50;;;15.50;99.90;;;;;;5112452;28;20165;-69
2023/08/11 02:05:24;;;;;;;8.63;6.50;;;15.40;99.90;;;;;;5105012;28;20165;-69
2023/08/11 02:07:51;;;;;;;8.13;6.20;;;15.40;99.90;;;;;;5075814;28;20609;-69
2023/08/11 02:10:16;;;;;;;9.13;5.87;;;15.50;99.90;;;;;;5094159;28;20176;-68
2023/08/11 02:12:42;;;;;;;10.77;6.67;;;15.50;99.90;;;;;;5112458;28;20745;-68
2023/08/11 02:15:10;;;;;;;9.33;7.97;;;15.50;99.90;;;;;;5112134;28;20645;-70
2023/08/11 02:17:37;;;;;;;10.20;7.70;;;15.50;99.90;;;;;;5094085;28;20180;-69
2023/08/11 02:20:36;;;;;;;9.03;6.30;;;15.50;99.90;;;;;;5094957;28;20478;-69
2023/08/11 02:22:55;;;;;;;7.33;6.17;;;15.50;99.90;;;;;;5081270;28;20410;-70
2023/08/11 02:25:22;;;;;;;7.80;6.10;;;15.40;99.90;;;;;;5091597;28;20403;-70
2023/08/11 02:27:47;;;;;;;10.60;7.37;;;15.40;99.90;;;;;;5091756;28;20197;-70
2023/08/11 02:30:13;;;;;;;7.23;6.07;;;15.40;99.90;;;;;;5091838;28;20399;-69
2023/08/11 02:32:40;;;;;;;13.10;9.57;;;15.50;99.90;;;;;;5077047;28;20231;-69
2023/08/11 02:35:07;;;;;;;12.70;9.03;;;15.40;99.90;;;;;;5068008;28;20419;-69
2023/08/11 02:37:33;;;;;;;11.00;8.00;;;15.40;99.90;;;;;;5091822;28;20776;-68
2023/08/11 02:39:58;;;;;;;7.93;7.13;;;15.40;99.90;;;;;;5091760;28;20392;-68
2023/08/11 02:42:25;;;;;;;11.67;7.80;;;15.40;99.90;;;;;;5091837;28;20446;-68
2023/08/11 02:44:51;;;;;;;10.10;7.67;;;15.40;99.90;;;;;;5073497;28;20207;-68
2023/08/11 02:47:17;;;;;;;18.03;10.70;;;15.40;99.90;;;;;;5069815;28;20425;-68
2023/08/11 02:49:43;;;;;;;10.93;9.10;;;15.20;99.90;;;;;;5053838;28;20601;-69
2023/08/11 02:52:09;;;;;;;11.67;7.90;;;15.20;99.90;;;;;;5071448;28;20424;-69
2023/08/11 02:54:35;;;;;;;9.50;7.10;;;15.20;99.90;;;;;;5088050;28;20241;-69
2023/08/11 02:57:01;;;;;;;7.40;6.60;;;15.20;99.90;;;;;;5091491;28;20490;-69
2023/08/11 02:59:27;;;;;;;12.73;9.70;;;15.20;99.90;;;;;;5091615;28;20157;-69
2023/08/11 03:01:52;;;;;;;12.30;9.47;;;15.20;99.90;;;;;;5090416;28;20454;-68
2023/08/11 03:04:18;;;;;;;8.63;7.73;;;15.20;99.90;;;;;;5091586;28;20177;-69
2023/08/11 03:06:46;;;;;;;7.73;6.43;;;15.30;99.90;;;;;;5091416;28;20186;-69
2023/08/11 03:09:12;;;;;;;7.57;6.30;;;15.30;99.90;;;;;;5091480;28;20185;-69
2023/08/11 03:11:37;;;;;;;7.70;6.60;;;15.30;99.90;;;;;;5073329;28;20485;-70
2023/08/11 03:14:03;;;;;;;10.97;6.80;;;15.30;99.90;;;;;;5077107;28;20970;-70
2023/08/11 03:16:31;;;;;;;7.77;6.20;;;15.30;99.90;;;;;;5060596;28;20172;-70
2023/08/11 03:18:56;;;;;;;6.80;6.10;;;15.30;99.90;;;;;;5073305;28;20169;-70
2023/08/11 03:21:22;;;;;;;10.47;7.90;;;15.30;99.90;;;;;;5075478;28;20432;-70
2023/08/11 03:23:47;;;;;;;7.53;5.80;;;15.30;99.90;;;;;;5076920;28;20640;-70
2023/08/11 03:26:13;;;;;;;9.63;6.00;;;15.20;99.90;;;;;;5094530;28;20170;-70
2023/08/11 03:28:39;;;;;;;8.30;6.67;;;15.20;99.90;;;;;;5088455;28;20206;-70
2023/08/11 03:31:05;;;;;;;16.63;7.30;;;15.20;99.90;;;;;;5092010;28;20272;-69
2023/08/11 03:33:30;;;;;;;8.17;6.97;;;15.10;99.90;;;;;;5106393;28;20172;-70
2023/08/11 03:35:56;;;;;;;7.57;5.90;;;15.10;99.90;;;;;;5096833;28;20903;-70
2023/08/11 03:38:21;;;;;;;12.43;8.03;;;15.10;99.90;;;;;;5115078;28;20197;-70
2023/08/11 03:40:47;;;;;;;12.30;7.53;;;15.10;99.90;;;;;;5096874;28;20181;-70
2023/08/11 03:43:13;;;;;;;10.70;7.93;;;15.00;99.90;;;;;;5096753;28;20176;-70
2023/08/11 03:45:38;;;;;;;7.40;6.70;;;14.90;99.90;;;;;;5079863;28;20173;-70
2023/08/11 03:48:04;;;;;;;7.00;5.73;;;14.90;99.90;;;;;;5076525;28;20166;-70
2023/08/11 03:50:29;;;;;;;7.70;6.90;;;15.00;99.90;;;;;;5076363;28;20190;-70
2023/08/11 03:52:55;;;;;;;13.50;7.57;;;15.00;99.90;;;;;;5076361;28;20168;-70
2023/08/11 03:55:20;;;;;;;9.60;6.90;;;14.90;99.90;;;;;;5076129;28;20170;-70
2023/08/11 03:57:46;;;;;;;11.53;7.13;;;14.80;99.90;;;;;;5093686;28;20225;-70
2023/08/11 04:00:15;;;;;;;9.27;7.20;;;14.80;99.90;;;;;;5079715;28;20207;-69
2023/08/11 04:02:44;;;;;;;14.13;7.20;;;14.70;99.90;;;;;;5093586;28;20223;-69
2023/08/11 04:05:10;;;;;;;9.03;6.20;;;14.70;99.90;;;;;;5114541;28;20399;-70
2023/08/11 04:07:37;;;;;;;10.60;7.33;;;14.60;99.90;;;;;;5114522;28;20415;-70
2023/08/11 04:10:04;;;;;;;9.27;6.63;;;14.60;99.90;;;;;;5114492;28;20402;-69
2023/08/11 04:12:32;;;;;;;13.00;7.03;;;14.60;99.90;;;;;;5101905;28;20435;-70
2023/08/11 04:14:59;;;;;;;13.43;7.13;;;14.60;99.90;;;;;;5075626;28;20782;-70
2023/08/11 04:17:26;;;;;;;11.30;5.80;;;14.60;99.90;;;;;;5093788;28;20885;-71
2023/08/11 04:19:53;;;;;;;10.87;7.20;;;14.70;99.90;;;;;;5093831;28;20489;-70
2023/08/11 04:22:19;;;;;;;7.67;6.70;;;14.60;99.90;;;;;;5093892;28;20872;-70
2023/08/11 04:24:45;;;;;;;10.00;7.30;;;14.60;99.90;;;;;;5093920;28;20403;-69
2023/08/11 04:27:10;;;;;;;9.43;6.77;;;14.60;99.90;;;;;;5075215;28;20777;-69
2023/08/11 04:29:36;;;;;;;10.20;7.13;;;14.70;99.90;;;;;;5086596;28;20237;-68
2023/08/11 04:32:04;;;;;;;8.20;6.43;;;14.80;99.90;;;;;;5113986;28;20227;-69
2023/08/11 04:34:31;;;;;;;9.40;6.80;;;14.80;99.90;;;;;;5114027;28;20172;-68
2023/08/11 04:36:57;;;;;;;10.67;6.37;;;14.90;99.90;;;;;;5095594;28;20406;-69
2023/08/11 04:39:23;;;;;;;8.37;6.60;;;15.00;99.90;;;;;;5113924;28;20495;-70
2023/08/11 04:41:48;;;;;;;8.07;6.23;;;15.00;99.90;;;;;;5080098;28;20196;-70
2023/08/11 04:44:14;;;;;;;11.47;5.77;;;15.00;99.90;;;;;;5081467;28;20173;-70
2023/08/11 04:46:40;;;;;;;8.80;6.30;;;15.10;99.90;;;;;;5093139;28;20169;-70
2023/08/11 04:49:06;;;;;;;7.23;6.03;;;15.20;99.90;;;;;;5093339;28;20162;-70
2023/08/11 04:51:32;;;;;;;8.70;6.20;;;15.20;99.90;;;;;;5093167;28;20770;-71
2023/08/11 04:54:01;;;;;;;7.90;5.53;;;15.30;99.90;;;;;;5092234;28;20178;-70
2023/08/11 04:56:27;;;;;;;10.30;7.33;;;15.30;99.90;;;;;;5074700;28;20414;-70
2023/08/11 04:58:54;;;;;;;9.40;6.57;;;15.40;99.90;;;;;;5112597;28;20449;-70
2023/08/11 05:01:23;;;;;;;11.63;6.83;;;15.40;99.90;;;;;;5113458;28;20886;-70
2023/08/11 05:03:49;;;;;;;7.87;6.97;;;15.40;99.90;;;;;;5113408;28;20494;-70
2023/08/11 05:06:16;;;;;;;11.13;6.57;;;15.50;99.90;;;;;;5113094;28;20431;-70
2023/08/11 05:08:42;;;;;;;11.90;7.20;;;15.50;99.90;;;;;;5103326;28;20439;-70
2023/08/11 05:11:08;;;;;;;11.63;7.80;;;15.50;99.90;;;;;;5097639;28;20438;-71
2023/08/11 05:13:33;;;;;;;7.93;7.03;;;15.50;99.90;;;;;;5113272;28;20169;-70
2023/08/11 05:15:59;;;;;;;11.10;7.87;;;15.50;99.90;;;;;;5112973;28;20165;-70
2023/08/11 05:18:24;;;;;;;13.27;9.03;;;15.50;99.90;;;;;;5094938;28;20192;-70
2023/08/11 05:20:50;;;;;;;9.67;7.10;;;15.50;99.90;;;;;;5113343;28;20184;-70
2023/08/11 05:23:16;;;;;;;9.70;7.90;;;15.50;99.90;;;;;;5095004;28;20183;-71
2023/08/11 05:25:42;;;;;;;9.20;6.30;;;15.60;99.90;;;;;;5075156;28;20428;-70
2023/08/11 05:28:07;;;;;;;12.00;7.87;;;15.70;99.90;;;;;;5091842;28;20174;-70
2023/08/11 05:30:33;;;;;;;10.50;7.13;;;15.70;99.90;;;;;;5109334;28;20268;-71
2023/08/11 05:32:58;;;;;;;10.87;8.20;;;15.80;99.90;;;;;;5112961;28;20173;-70
2023/08/11 05:35:24;;;;;;;13.80;9.47;;;15.80;99.90;;;;;;5094440;28;20169;-69
2023/08/11 05:37:49;;;;;;;8.57;7.00;;;15.90;99.90;;;;;;5094655;28;20577;-69
2023/08/11 05:40:16;;;;;;;11.87;6.50;;;16.00;99.90;;;;;;5094731;28;20244;-70
2023/08/11 05:42:41;;;;;;;9.60;6.87;;;16.20;99.90;;;;;;5089882;28;20182;-69
2023/08/11 05:45:07;;;;;;;10.77;7.27;;;16.30;99.90;;;;;;5078481;28;21008;-70
2023/08/11 05:47:33;;;;;;;9.00;6.70;;;16.40;99.90;;;;;;5112655;28;20165;-70
2023/08/11 05:49:59;;;;;;;8.90;6.90;;;16.70;99.90;;;;;;5112958;28;20399;-70
2023/08/11 05:52:24;;;;;;;9.30;5.97;;;16.80;99.90;;;;;;5112594;28;20183;-70
2023/08/11 05:54:50;;;;;;;13.97;6.63;;;17.10;99.90;;;;;;5112702;28;20165;-70
2023/08/11 05:57:15;;;;;;;10.07;6.30;;;17.20;99.90;;;;;;5100532;28;20693;-70
2023/08/11 05:59:41;;;;;;;11.70;6.90;;;17.40;99.90;;;;;;5090481;28;20307;-70
2023/08/11 06:02:06;;;;;;;8.40;5.50;;;17.60;99.90;;;;;;5094277;28;20673;-70
2023/08/11 06:04:32;;;;;;;17.80;6.37;;;17.90;99.90;;;;;;5112555;28;20239;-69
2023/08/11 06:06:57;;;;;;;7.60;6.10;;;18.30;99.90;;;;;;5112019;28;20178;-69
2023/08/11 06:09:23;;;;;;;8.33;5.50;;;18.90;99.90;;;;;;5112436;28;20196;-70
2023/08/11 06:11:49;;;;;;;12.60;5.80;;;19.60;99.90;;;;;;5112290;28;20232;-70
2023/08/11 06:14:14;;;;;;;8.23;5.77;;;20.30;99.90;;;;;;5093760;28;20173;-70
2023/08/11 06:16:40;;;;;;;9.93;5.33;;;21.10;99.90;;;;;;5082718;28;20574;-70
2023/08/11 06:19:05;;;;;;;5.73;4.00;;;21.90;99.90;;;;;;5111904;28;20193;-70
2023/08/11 06:21:31;;;;;;;10.20;5.40;;;22.90;99.90;;;;;;5094020;28;20181;-70
2023/08/11 06:23:56;;;;;;;6.03;4.90;;;23.70;99.90;;;;;;5112381;28;20168;-71
2023/08/11 06:26:22;;;;;;;6.00;4.83;;;24.40;99.90;;;;;;5111983;28;20188;-70
2023/08/11 06:28:48;;;;;;;5.50;4.90;;;25.00;99.90;;;;;;5112275;28;20173;-70
2023/08/11 06:31:16;;;;;;;8.50;5.00;;;25.40;99.90;;;;;;5088923;28;20458;-70
2023/08/11 06:33:42;;;;;;;8.33;4.70;;;26.10;99.90;;;;;;5101351;28;20169;-70
2023/08/11 06:36:07;;;;;;;8.97;5.10;;;26.40;99.90;;;;;;5111857;28;20402;-70
2023/08/11 06:38:33;;;;;;;5.57;4.43;;;26.70;99.90;;;;;;5112091;28;20215;-70
2023/08/11 06:40:59;;;;;;;8.63;4.63;;;27.60;99.90;;;;;;5112076;28;20203;-68
2023/08/11 06:43:25;;;;;;;4.50;4.10;;;28.50;93.80;;;;;;5109684;28;20180;-67
2023/08/11 06:45:50;;;;;;;4.77;3.73;;;29.00;86.00;;;;;;5106189;28;20180;-68
2023/08/11 06:48:16;;;;;;;6.07;3.90;;;29.30;81.60;;;;;;5098382;28;20595;-68
2023/08/11 06:50:41;;;;;;;6.60;4.53;;;29.80;75.00;;;;;;5094239;28;20194;-69
2023/08/11 06:53:07;;;;;;;5.60;3.80;;;29.70;70.60;;;;;;5107383;28;20677;-68
2023/08/11 06:55:32;;;;;;;5.57;3.90;;;30.30;71.30;;;;;;5113139;28;20233;-68
2023/08/11 06:57:58;;;;;;;8.07;5.13;;;30.70;68.40;;;;;;5115947;28;20224;-68
2023/08/11 07:00:23;;;;;;;5.90;3.93;;;31.50;67.10;;;;;;5097899;28;20208;-68
2023/08/11 07:02:49;;;;;;;6.20;3.87;;;32.60;62.50;;;;;;5100074;28;20793;-67
2023/08/11 07:05:15;;;;;;;6.00;3.77;;;33.10;56.70;;;;;;5100923;28;20176;-65
2023/08/11 07:07:40;;;;;;;7.10;4.80;;;33.40;53.50;;;;;;5105012;28;20676;-66
2023/08/11 07:10:06;;;;;;;6.70;4.03;;;33.50;51.50;;;;;;5095218;28;20644;-66
2023/08/11 07:12:32;;;;;;;5.87;4.10;;;33.70;51.20;;;;;;5095334;28;20177;-66
2023/08/11 07:14:57;;;;;;;7.00;4.93;;;34.20;50.10;;;;;;5095070;28;20165;-67
2023/08/11 07:17:23;;;;;;;3.80;3.17;;;35.00;49.40;;;;;;5091502;28;20197;-66
2023/08/11 07:19:48;;;;;;;4.80;4.40;;;35.80;47.40;;;;;;5091456;28;20287;-67
2023/08/11 07:22:14;;;;;;;6.53;3.93;;;36.60;46.50;;;;;;5100622;28;20193;-67
2023/08/11 07:24:39;;;;;;;5.23;3.50;;;37.10;44.00;;;;;;5097175;28;20172;-67
2023/08/11 07:27:05;;;;;;;6.40;4.10;;;37.60;43.80;;;;;;5096055;28;20185;-67
2023/08/11 07:29:30;;;;;;;3.87;3.57;;;37.60;41.70;;;;;;5094882;28;20655;-66
2023/08/11 07:31:59;;;;;;;6.67;3.90;;;38.50;42.00;;;;;;5090060;28;20607;-67
2023/08/11 07:34:24;;;;;;;5.27;4.20;;;38.40;40.10;;;;;;5094728;28;20165;-67
2023/08/11 07:36:50;;;;;;;3.97;3.57;;;39.10;39.70;;;;;;5110786;28;20426;-67
2023/08/11 07:39:16;;;;;;;7.30;3.90;;;39.80;39.30;;;;;;5115164;28;20201;-67
2023/08/11 07:41:41;;;;;;;5.63;3.93;;;40.30;38.20;;;;;;5114687;28;20188;-66
2023/08/11 07:44:07;;;;;;;5.50;3.80;;;40.90;37.90;;;;;;5115064;28;20168;-67
2023/08/11 07:46:32;;;;;;;3.67;3.37;;;41.90;37.30;;;;;;5114516;28;20226;-67
2023/08/11 07:48:58;;;;;;;4.40;4.00;;;42.60;35.60;;;;;;5095665;28;20209;-67
2023/08/11 07:51:24;;;;;;;6.00;4.03;;;43.30;34.20;;;;;;5097914;28;20257;-67
2023/08/11 07:53:49;;;;;;;8.13;4.53;;;43.10;33.30;;;;;;5094595;28;20162;-67
2023/08/11 07:56:15;;;;;;;4.37;4.07;;;42.20;32.80;;;;;;5094334;28;20172;-67
2023/08/11 07:58:41;;;;;;;4.57;4.17;;;41.30;33.60;;;;;;5094327;28;20192;-67
2023/08/11 08:01:08;;;;;;;4.17;3.77;;;40.70;34.50;;;;;;5076177;28;20662;-67
2023/08/11 08:03:35;;;;;;;4.70;3.57;;;41.00;35.00;;;;;;5094150;28;20252;-67
2023/08/11 08:06:00;;;;;;;4.13;3.73;;;41.40;34.50;;;;;;5091632;28;20406;-67
2023/08/11 08:08:26;;;;;;;4.07;3.60;;;41.10;34.70;;;;;;5109903;28;20429;-67
2023/08/11 08:10:52;;;;;;;4.13;3.70;;;40.40;34.00;;;;;;5114562;28;20472;-67
2023/08/11 08:13:17;;;;;;;4.47;3.10;;;40.10;34.90;;;;;;5094191;28;20650;-67
2023/08/11 08:15:43;;;;;;;4.23;3.80;;;41.10;35.90;;;;;;5093818;28;20193;-67
2023/08/11 08:18:08;;;;;;;3.77;3.47;;;42.00;35.10;;;;;;5094099;28;20546;-67
2023/08/11 08:20:34;;;;;;;8.03;3.40;;;42.90;32.40;;;;;;5091108;28;20194;-67
2023/08/11 08:22:59;;;;;;;4.13;3.73;;;42.80;31.60;;;;;;5079984;28;20646;-67
2023/08/11 08:25:25;;;;;;;4.50;3.43;;;43.10;32.40;;;;;;5093538;28;20169;-67
2023/08/11 08:27:51;;;;;;;4.73;3.00;;;42.60;31.40;;;;;;5108815;28;20204;-67
2023/08/11 08:30:16;;;;;;;6.00;4.20;;;42.40;32.20;;;;;;5114080;28;20648;-67
2023/08/11 08:32:42;;;;;;;4.20;3.50;;;41.50;32.00;;;;;;5113931;28;20200;-67
2023/08/11 08:35:09;;;;;;;3.53;3.17;;;41.90;32.20;;;;;;5113854;28;20237;-67
2023/08/11 08:37:35;;;;;;;3.80;3.47;;;43.40;33.40;;;;;;5099556;28;20655;-67
2023/08/11 08:40:01;;;;;;;6.47;3.03;;;44.70;31.50;;;;;;5097248;28;20406;-67
2023/08/11 08:42:26;;;;;;;3.70;3.40;;;46.30;30.70;;;;;;5102653;28;20181;-67
2023/08/11 08:44:53;;;;;;;3.50;3.20;;;47.40;30.00;;;;;;5093438;28;20180;-68
2023/08/11 08:47:21;;;;;;;3.43;3.13;;;48.70;29.30;;;;;;5075294;28;20204;-67
2023/08/11 08:49:49;;;;;;;4.40;3.00;;;49.60;27.70;;;;;;5093360;28;20455;-67
2023/08/11 08:52:15;;;;;;;5.53;3.53;;;50.00;27.20;;;;;;5102010;28;20437;-67
2023/08/11 08:54:41;;;;;;;5.33;3.33;;;50.80;26.70;;;;;;5094346;28;20446;-67
2023/08/11 08:57:11;;;;;;;4.30;3.90;;;51.30;26.00;;;;;;5098306;28;20404;-68
2023/08/11 08:59:39;;;;;;;4.00;3.60;;;52.20;26.20;;;;;;5093229;28;20406;-68
2023/08/11 09:02:06;;;;;;;4.17;3.77;;;52.40;24.50;;;;;;5093547;28;20457;-68
2023/08/11 09:04:33;;;;;;;3.93;3.63;;;53.30;25.60;;;;;;5083129;28;20414;-68
2023/08/11 09:06:59;;;;;;;4.20;3.90;;;54.40;25.90;;;;;;5107282;28;20420;-68
2023/08/11 09:09:27;;;;;;;4.70;3.93;;;54.50;23.60;;;;;;5092880;28;20489;-68
2023/08/11 09:11:53;;;;;;;3.37;3.17;;;55.00;23.60;;;;;;5076305;28;20471;-68
2023/08/11 09:14:20;;;;;;;5.63;4.73;;;55.50;22.90;;;;;;5107800;28;20960;-68
2023/08/11 09:16:46;;;;;;;4.40;4.00;;;55.80;22.40;;;;;;5109594;28;20417;-68
2023/08/11 09:19:13;;;;;;;5.17;3.87;;;55.50;22.40;;;;;;5092086;28;20482;-68
2023/08/11 09:21:42;;;;;;;4.90;4.40;;;56.00;22.80;;;;;;5074627;28;20193;-68
2023/08/11 09:24:12;;;;;;;4.33;4.03;;;56.30;21.20;;;;;;5092689;28;20415;-68
2023/08/11 09:26:40;;;;;;;3.97;3.67;;;55.80;20.90;;;;;;5091412;28;20403;-68
2023/08/11 09:29:06;;;;;;;4.23;3.93;;;56.60;22.20;;;;;;5091998;28;20541;-68
2023/08/11 09:31:31;;;;;;;4.23;3.93;;;57.50;22.20;;;;;;5096048;28;20509;-69
2023/08/11 09:34:09;;;;;;;4.23;3.93;;;58.00;20.20;;;;;;5092679;28;20627;-68
2023/08/11 09:36:35;;;;;;;4.00;3.80;;;57.90;19.70;;;;;;5091512;28;20654;-69
2023/08/11 09:39:07;;;;;;;5.10;4.00;;;58.20;19.80;;;;;;5104648;28;20410;-72
2023/08/11 09:41:40;;;;;;;4.20;4.00;;;58.60;20.10;;;;;;5112598;28;20425;-71
2023/08/11 09:44:06;;;;;;;4.30;4.10;;;59.00;20.50;;;;;;5087747;28;20455;-70
2023/08/11 09:46:34;;;;;;;4.07;3.87;;;59.40;20.90;;;;;;5100125;28;20403;-70
2023/08/11 09:49:00;;;;;;;4.93;4.57;;;59.50;19.90;;;;;;5071959;28;20456;-71
2023/08/11 09:51:26;;;;;;;4.33;4.13;;;59.60;19.00;;;;;;5071967;28;20416;-70
2023/08/11 09:53:53;;;;;;;4.10;3.80;;;59.50;19.70;;;;;;5109953;28;20318;-71
2023/08/11 09:56:20;;;;;;;4.80;4.60;;;60.00;19.80;;;;;;5096557;28;20828;-71
2023/08/11 09:58:47;;;;;;;4.90;4.70;;;60.20;19.00;;;;;;5109762;28;20818;-71
2023/08/11 10:01:15;;;;;;;4.47;4.27;;;60.50;18.90;;;;;;5112599;28;20505;-71
2023/08/11 10:03:43;;;;;;;5.32;5.03;;;61.10;19.80;;;;;;5095621;28;20411;-71
2023/08/11 10:06:16;;;;;;;5.68;5.38;;;61.60;19.70;;;;;;5073598;28;20272;-71
2023/08/11 10:08:43;;;;;;;6.15;5.57;;;62.20;19.10;;;;;;5091198;28;20201;-71
2023/08/11 10:11:09;;;;;;;5.28;4.97;;;62.20;17.40;;;;;;5084604;28;20197;-71
2023/08/11 10:13:35;;;;;;;5.70;5.40;;;61.10;17.80;;;;;;5093285;28;20193;-71
2023/08/11 10:16:01;;;;;;;5.28;4.97;;;61.00;18.10;;;;;;5089298;28;20216;-71
2023/08/11 10:18:27;;;;;;;4.80;4.50;;;60.40;16.70;;;;;;5093718;28;20173;-71
2023/08/11 10:20:54;;;;;;;5.60;5.13;;;60.30;17.50;;;;;;5091718;28;20582;-71
2023/08/11 10:23:19;;;;;;;5.13;4.93;;;60.50;17.20;;;;;;5091413;28;20438;-71
2023/08/11 10:25:46;;;;;;;5.60;5.30;;;60.90;17.90;;;;;;5084789;28;20455;-71
2023/08/11 10:28:13;;;;;;;5.80;5.50;;;60.40;16.30;;;;;;5094117;28;20200;-71
2023/08/11 10:30:42;;;;;;;5.83;5.53;;;60.60;17.80;;;;;;5095098;28;20573;-71
2023/08/11 10:33:08;;;;;;;4.97;4.73;;;61.10;17.50;;;;;;5106661;28;20434;-71
2023/08/11 10:35:56;;;;;;;5.70;5.40;;;61.00;17.20;;;;;;5102663;28;20438;-71
2023/08/11 10:38:26;;;;;;;4.40;4.20;;;61.20;17.00;;;;;;5098506;28;20454;-71
2023/08/11 10:41:00;;;;;;;5.03;4.80;;;60.80;16.90;;;;;;5096011;28;20407;-71
2023/08/11 10:43:33;;;;;;;5.53;5.20;;;61.20;17.90;;;;;;5093767;28;20427;-71
2023/08/11 10:46:26;;;;;;;6.13;5.82;;;61.60;16.80;;;;;;5077720;28;20242;-71
2023/08/11 10:48:57;;;;;;;6.57;6.18;;;61.90;17.00;;;;;;5100323;28;20577;-71
2023/08/11 10:51:30;;;;;;;6.20;5.90;;;62.80;17.90;;;;;;5095757;28;20189;-71
2023/08/11 10:54:00;;;;;;;6.28;5.97;;;63.20;17.30;;;;;;5094419;28;20214;-72
2023/08/11 10:56:31;;;;;;;7.30;7.00;;;63.70;17.10;;;;;;5071130;28;20223;-70
2023/08/11 10:59:08;;;;;;;7.40;7.10;;;64.50;17.50;;;;;;5098509;28;20184;-71
2023/08/11 11:01:36;;;;;;;7.82;7.53;;;65.00;16.90;;;;;;5113354;28;20369;-72
2023/08/11 11:04:01;;;;;;;8.65;8.25;;;65.50;16.90;;;;;;5095409;28;20169;-70
2023/08/11 11:06:27;;;;;;;9.13;8.82;;;65.80;16.70;;;;;;5095049;28;20634;-71
2023/08/11 11:08:53;;;;;;;10.20;9.70;;;66.20;16.80;;;;;;5076084;28;20573;-70
2023/08/11 11:11:18;;;;;;;10.02;9.63;;;66.40;16.70;;;;;;5094376;28;20205;-71
2023/08/11 11:13:44;;;;;;;9.73;9.43;;;66.40;16.40;;;;;;5105319;28;20164;-68
2023/08/11 11:16:09;;;;;;;9.18;8.77;;;66.40;15.80;;;;;;5097374;28;20545;-70
2023/08/11 11:18:36;;;;;;;8.40;8.10;;;65.90;15.80;;;;;;5115728;28;20289;-70
2023/08/11 11:21:03;;;;;;;8.57;8.00;;;65.40;15.10;;;;;;5115538;28;20196;-70
2023/08/11 11:23:28;;;;;;;8.07;7.68;;;65.00;15.80;;;;;;5115579;28;20195;-70
2023/08/11 11:25:54;;;;;;;8.00;7.60;;;64.70;16.10;;;;;;5083999;28;20645;-68
2023/08/11 11:28:20;;;;;;;7.40;7.10;;;64.70;16.40;;;;;;5095077;28;20169;-68
2023/08/11 11:30:45;;;;;;;7.10;6.80;;;64.60;16.30;;;;;;5093743;28;20216;-68
2023/08/11 11:33:14;;;;;;;6.90;6.60;;;64.70;16.40;;;;;;5094860;28;20259;-68
2023/08/11 11:35:40;;;;;;;6.45;6.25;;;64.70;16.20;;;;;;5094556;28;20537;-68
2023/08/11 11:38:06;;;;;;;7.05;6.75;;;64.80;16.10;;;;;;5097826;28;20193;-69
2023/08/11 11:40:31;;;;;;;6.40;6.10;;;64.10;15.10;;;;;;5114695;28;20189;-70
2023/08/11 11:42:57;;;;;;;6.00;5.70;;;64.00;16.10;;;;;;5086244;28;20172;-71
2023/08/11 11:45:23;;;;;;;5.95;5.72;;;63.80;15.90;;;;;;5093988;28;20177;-70
2023/08/11 11:47:49;;;;;;;7.18;6.82;;;63.00;14.60;;;;;;5076544;28;20565;-68
2023/08/11 11:50:16;;;;;;;6.28;5.78;;;62.00;14.70;;;;;;5104702;28;20173;-68
2023/08/11 11:52:46;;;;;;;6.15;5.85;;;61.90;15.70;;;;;;5094008;28;20532;-68
2023/08/11 11:55:12;;;;;;;4.95;4.65;;;61.80;15.50;;;;;;5114033;28;20164;-69
2023/08/11 11:57:38;;;;;;;4.80;4.60;;;61.90;16.30;;;;;;5114929;28;20401;-69
2023/08/11 12:00:15;;;;;;;7.50;7.10;;;61.40;15.90;;;;;;5096046;28;20208;-69
2023/08/11 12:02:42;;;;;;;5.23;4.93;;;60.60;16.50;;;;;;5094406;28;20151;-68
2023/08/11 12:05:08;;;;;;;5.27;4.97;;;59.80;17.00;;;;;;5093992;28;20514;-67
2023/08/11 12:07:36;;;;;;;5.20;4.90;;;60.00;16.30;;;;;;5093435;28;20970;-69
2023/08/11 12:10:02;;;;;;;4.50;4.30;;;59.20;15.40;;;;;;5093920;28;20419;-67
2023/08/11 12:12:28;;;;;;;5.80;5.00;;;59.50;16.70;;;;;;5093991;28;20438;-70
2023/08/11 12:15:04;;;;;;;5.43;5.13;;;59.80;16.00;;;;;;5110234;28;20210;-67
2023/08/11 12:17:32;;;;;;;5.13;4.93;;;60.40;16.60;;;;;;5114528;28;20500;-69
2023/08/11 12:19:57;;;;;;;5.00;4.70;;;60.80;16.40;;;;;;5097606;28;21033;-69
2023/08/11 12:22:23;;;;;;;4.83;4.53;;;61.30;16.50;;;;;;5090988;28;20530;-69
2023/08/11 12:24:48;;;;;;;4.40;4.20;;;61.30;16.50;;;;;;5093287;28;20177;-68
2023/08/11 12:27:14;;;;;;;5.50;5.20;;;60.70;16.90;;;;;;5093473;28;20158;-68
2023/08/11 12:29:39;;;;;;;4.90;4.60;;;59.90;16.90;;;;;;5093726;28;20177;-67
2023/08/11 12:32:05;;;;;;;5.27;4.97;;;59.80;17.30;;;;;;5093460;28;20184;-67
2023/08/11 12:34:31;;;;;;;4.20;4.00;;;59.60;15.50;;;;;;5093913;28;20180;-69
2023/08/11 12:36:56;;;;;;;4.10;3.90;;;59.70;15.90;;;;;;5075072;28;20200;-67
2023/08/11 12:39:22;;;;;;;5.33;5.03;;;60.00;16.90;;;;;;5085324;28;20208;-69
2023/08/11 12:41:48;;;;;;;4.60;4.30;;;60.40;17.20;;;;;;5101875;28;20188;-69
2023/08/11 12:44:14;;;;;;;5.77;5.27;;;60.80;17.30;;;;;;5092588;28;20773;-69